sensor_id;sensor_type;location;lat;lon;timestamp;P1;durP1;ratioP1;P2;durP2;ratioP2
55090;SDS011;40985;53.180;5.800;2023-02-28T00:02:17;8.65;;;0.60;;
55090;SDS011;40985;53.180;5.800;2023-02-28T00:04:42;8.82;;;1.73;;
55090;SDS011;40985;53.180;5.800;2023-02-28T00:07:08;5.00;;;0.60;;
55090;SDS011;40985;53.180;5.800;2023-02-28T00:09:34;5.70;;;0.50;;
55090;SDS011;40985;53.180;5.800;2023-02-28T00:12:00;7.93;;;1.02;;
55090;SDS011;40985;53.180;5.800;2023-02-28T00:14:38;6.40;;;1.30;;
55090;SDS011;40985;53.180;5.800;2023-02-28T00:17:04;6.28;;;0.68;;
55090;SDS011;40985;53.180;5.800;2023-02-28T00:19:29;8.10;;;0.80;;
55090;SDS011;40985;53.180;5.800;2023-02-28T00:21:55;6.43;;;0.80;;
55090;SDS011;40985;53.180;5.800;2023-02-28T00:24:21;9.10;;;0.80;;
55090;SDS011;40985;53.180;5.800;2023-02-28T00:26:46;8.80;;;1.15;;
55090;SDS011;40985;53.180;5.800;2023-02-28T00:29:12;10.57;;;1.20;;
55090;SDS011;40985;53.180;5.800;2023-02-28T00:31:38;10.15;;;1.17;;
55090;SDS011;40985;53.180;5.800;2023-02-28T00:34:03;13.70;;;2.22;;
55090;SDS011;40985;53.180;5.800;2023-02-28T00:36:29;11.98;;;3.25;;
55090;SDS011;40985;53.180;5.800;2023-02-28T00:38:54;10.35;;;2.65;;
55090;SDS011;40985;53.180;5.800;2023-02-28T00:41:20;10.63;;;3.22;;
55090;SDS011;40985;53.180;5.800;2023-02-28T00:43:46;11.63;;;3.13;;
55090;SDS011;40985;53.180;5.800;2023-02-28T00:46:11;8.18;;;1.73;;
55090;SDS011;40985;53.180;5.800;2023-02-28T00:48:37;9.45;;;2.00;;
55090;SDS011;40985;53.180;5.800;2023-02-28T00:51:03;8.15;;;1.60;;
55090;SDS011;40985;53.180;5.800;2023-02-28T00:53:29;8.50;;;0.85;;
55090;SDS011;40985;53.180;5.800;2023-02-28T00:55:55;9.60;;;0.75;;
55090;SDS011;40985;53.180;5.800;2023-02-28T00:58:20;8.80;;;0.57;;
55090;SDS011;40985;53.180;5.800;2023-02-28T01:00:46;9.05;;;0.65;;
55090;SDS011;40985;53.180;5.800;2023-02-28T01:03:16;8.38;;;1.05;;
55090;SDS011;40985;53.180;5.800;2023-02-28T01:05:42;8.60;;;0.60;;
55090;SDS011;40985;53.180;5.800;2023-02-28T01:08:08;7.68;;;0.60;;
55090;SDS011;40985;53.180;5.800;2023-02-28T01:10:33;17.70;;;2.28;;
55090;SDS011;40985;53.180;5.800;2023-02-28T01:13:01;7.95;;;1.30;;
55090;SDS011;40985;53.180;5.800;2023-02-28T01:15:27;6.10;;;0.60;;
55090;SDS011;40985;53.180;5.800;2023-02-28T01:17:53;9.63;;;0.60;;
55090;SDS011;40985;53.180;5.800;2023-02-28T01:20:19;11.00;;;0.98;;
55090;SDS011;40985;53.180;5.800;2023-02-28T01:22:45;9.30;;;0.93;;
55090;SDS011;40985;53.180;5.800;2023-02-28T01:25:11;6.85;;;0.40;;
55090;SDS011;40985;53.180;5.800;2023-02-28T01:27:37;7.38;;;0.57;;
55090;SDS011;40985;53.180;5.800;2023-02-28T01:30:04;7.75;;;0.70;;
55090;SDS011;40985;53.180;5.800;2023-02-28T01:32:31;4.57;;;0.65;;
55090;SDS011;40985;53.180;5.800;2023-02-28T01:34:57;5.60;;;0.50;;
55090;SDS011;40985;53.180;5.800;2023-02-28T01:37:23;6.45;;;0.90;;
55090;SDS011;40985;53.180;5.800;2023-02-28T01:39:48;4.40;;;0.45;;
55090;SDS011;40985;53.180;5.800;2023-02-28T01:42:14;10.02;;;0.75;;
55090;SDS011;40985;53.180;5.800;2023-02-28T01:44:58;7.28;;;0.63;;
55090;SDS011;40985;53.180;5.800;2023-02-28T01:47:25;5.07;;;0.90;;
55090;SDS011;40985;53.180;5.800;2023-02-28T01:49:55;5.20;;;1.10;;
55090;SDS011;40985;53.180;5.800;2023-02-28T01:52:21;6.85;;;1.60;;
55090;SDS011;40985;53.180;5.800;2023-02-28T01:54:50;7.18;;;0.70;;
55090;SDS011;40985;53.180;5.800;2023-02-28T01:57:19;5.47;;;1.35;;
55090;SDS011;40985;53.180;5.800;2023-02-28T01:59:53;7.18;;;0.50;;
55090;SDS011;40985;53.180;5.800;2023-02-28T02:02:23;7.20;;;0.70;;
55090;SDS011;40985;53.180;5.800;2023-02-28T02:04:54;4.78;;;0.93;;
55090;SDS011;40985;53.180;5.800;2023-02-28T02:07:24;7.63;;;0.63;;
55090;SDS011;40985;53.180;5.800;2023-02-28T02:09:59;5.18;;;0.52;;
55090;SDS011;40985;53.180;5.800;2023-02-28T02:29:10;4.78;;;0.68;;
55090;SDS011;40985;53.180;5.800;2023-02-28T02:37:07;4.93;;;0.52;;
55090;SDS011;40985;53.180;5.800;2023-02-28T02:45:31;8.52;;;1.05;;
55090;SDS011;40985;53.180;5.800;2023-02-28T02:48:09;6.33;;;0.70;;
55090;SDS011;40985;53.180;5.800;2023-02-28T02:56:18;5.65;;;0.70;;
55090;SDS011;40985;53.180;5.800;2023-02-28T02:58:49;6.57;;;0.60;;
55090;SDS011;40985;53.180;5.800;2023-02-28T03:01:20;4.45;;;0.55;;
55090;SDS011;40985;53.180;5.800;2023-02-28T03:03:55;7.82;;;1.00;;
55090;SDS011;40985;53.180;5.800;2023-02-28T03:06:23;6.10;;;1.15;;
55090;SDS011;40985;53.180;5.800;2023-02-28T03:08:49;4.32;;;1.10;;
55090;SDS011;40985;53.180;5.800;2023-02-28T03:11:15;8.30;;;0.70;;
55090;SDS011;40985;53.180;5.800;2023-02-28T03:18:40;10.23;;;0.70;;
55090;SDS011;40985;53.180;5.800;2023-02-28T03:21:32;7.93;;;0.70;;
55090;SDS011;40985;53.180;5.800;2023-02-28T03:32:50;4.32;;;0.90;;
55090;SDS011;40985;53.180;5.800;2023-02-28T03:35:19;7.15;;;0.90;;
55090;SDS011;40985;53.180;5.800;2023-02-28T03:37:47;4.32;;;0.85;;
55090;SDS011;40985;53.180;5.800;2023-02-28T03:40:21;7.63;;;0.80;;
55090;SDS011;40985;53.180;5.800;2023-02-28T03:42:51;7.90;;;0.90;;
55090;SDS011;40985;53.180;5.800;2023-02-28T03:45:26;8.13;;;0.93;;
55090;SDS011;40985;53.180;5.800;2023-02-28T03:48:01;6.50;;;0.85;;
55090;SDS011;40985;53.180;5.800;2023-02-28T03:50:36;3.70;;;0.73;;
55090;SDS011;40985;53.180;5.800;2023-02-28T03:53:09;3.70;;;0.70;;
55090;SDS011;40985;53.180;5.800;2023-02-28T03:55:40;6.07;;;1.02;;
55090;SDS011;40985;53.180;5.800;2023-02-28T03:58:12;4.55;;;0.60;;
55090;SDS011;40985;53.180;5.800;2023-02-28T04:00:58;4.05;;;0.50;;
55090;SDS011;40985;53.180;5.800;2023-02-28T04:03:33;7.28;;;0.73;;
55090;SDS011;40985;53.180;5.800;2023-02-28T04:06:03;5.10;;;0.85;;
55090;SDS011;40985;53.180;5.800;2023-02-28T04:08:31;5.05;;;0.73;;
55090;SDS011;40985;53.180;5.800;2023-02-28T04:10:59;5.20;;;0.60;;
55090;SDS011;40985;53.180;5.800;2023-02-28T04:13:31;6.22;;;0.50;;
55090;SDS011;40985;53.180;5.800;2023-02-28T04:15:56;8.85;;;0.90;;
55090;SDS011;40985;53.180;5.800;2023-02-28T04:18:22;5.45;;;0.90;;
55090;SDS011;40985;53.180;5.800;2023-02-28T04:20:48;3.25;;;0.70;;
55090;SDS011;40985;53.180;5.800;2023-02-28T04:23:14;5.28;;;0.50;;
55090;SDS011;40985;53.180;5.800;2023-02-28T04:25:39;6.80;;;0.82;;
55090;SDS011;40985;53.180;5.800;2023-02-28T04:28:06;5.35;;;0.55;;
55090;SDS011;40985;53.180;5.800;2023-02-28T04:30:31;9.32;;;0.88;;
55090;SDS011;40985;53.180;5.800;2023-02-28T04:32:57;8.00;;;0.50;;
55090;SDS011;40985;53.180;5.800;2023-02-28T04:35:23;8.75;;;1.02;;
55090;SDS011;40985;53.180;5.800;2023-02-28T04:37:49;8.80;;;0.65;;
55090;SDS011;40985;53.180;5.800;2023-02-28T04:40:15;10.35;;;0.75;;
55090;SDS011;40985;53.180;5.800;2023-02-28T04:42:41;8.73;;;0.68;;
55090;SDS011;40985;53.180;5.800;2023-02-28T04:45:06;7.40;;;0.55;;
55090;SDS011;40985;53.180;5.800;2023-02-28T04:47:36;10.45;;;0.63;;
55090;SDS011;40985;53.180;5.800;2023-02-28T04:50:02;8.30;;;1.13;;
55090;SDS011;40985;53.180;5.800;2023-02-28T04:52:28;8.70;;;0.40;;
55090;SDS011;40985;53.180;5.800;2023-02-28T04:54:54;5.90;;;0.50;;
55090;SDS011;40985;53.180;5.800;2023-02-28T04:57:20;3.55;;;0.47;;
55090;SDS011;40985;53.180;5.800;2023-02-28T04:59:45;6.30;;;0.60;;
55090;SDS011;40985;53.180;5.800;2023-02-28T05:02:11;4.78;;;0.57;;
55090;SDS011;40985;53.180;5.800;2023-02-28T05:04:37;9.50;;;0.95;;
55090;SDS011;40985;53.180;5.800;2023-02-28T05:07:03;6.57;;;0.60;;
55090;SDS011;40985;53.180;5.800;2023-02-28T05:09:28;7.22;;;0.50;;
55090;SDS011;40985;53.180;5.800;2023-02-28T05:11:54;5.70;;;0.47;;
55090;SDS011;40985;53.180;5.800;2023-02-28T05:14:21;7.45;;;0.50;;
55090;SDS011;40985;53.180;5.800;2023-02-28T05:16:46;10.57;;;0.45;;
55090;SDS011;40985;53.180;5.800;2023-02-28T05:19:12;8.35;;;0.60;;
55090;SDS011;40985;53.180;5.800;2023-02-28T05:21:39;16.60;;;2.17;;
55090;SDS011;40985;53.180;5.800;2023-02-28T05:24:07;8.73;;;1.10;;
55090;SDS011;40985;53.180;5.800;2023-02-28T05:26:40;6.05;;;1.25;;
55090;SDS011;40985;53.180;5.800;2023-02-28T05:29:07;8.25;;;2.03;;
55090;SDS011;40985;53.180;5.800;2023-02-28T05:31:34;10.02;;;1.40;;
55090;SDS011;40985;53.180;5.800;2023-02-28T05:34:00;6.53;;;1.83;;
55090;SDS011;40985;53.180;5.800;2023-02-28T05:36:26;6.82;;;1.05;;
55090;SDS011;40985;53.180;5.800;2023-02-28T05:38:52;8.40;;;1.58;;
55090;SDS011;40985;53.180;5.800;2023-02-28T05:41:18;7.70;;;0.90;;
55090;SDS011;40985;53.180;5.800;2023-02-28T05:43:45;7.57;;;1.60;;
55090;SDS011;40985;53.180;5.800;2023-02-28T05:46:12;7.32;;;0.63;;
55090;SDS011;40985;53.180;5.800;2023-02-28T05:48:38;5.40;;;0.70;;
55090;SDS011;40985;53.180;5.800;2023-02-28T05:51:05;7.47;;;0.63;;
55090;SDS011;40985;53.180;5.800;2023-02-28T05:53:31;7.95;;;1.15;;
55090;SDS011;40985;53.180;5.800;2023-02-28T05:55:57;8.70;;;1.90;;
55090;SDS011;40985;53.180;5.800;2023-02-28T05:58:24;9.02;;;1.65;;
55090;SDS011;40985;53.180;5.800;2023-02-28T06:00:55;6.95;;;0.90;;
55090;SDS011;40985;53.180;5.800;2023-02-28T06:03:25;12.25;;;1.80;;
55090;SDS011;40985;53.180;5.800;2023-02-28T06:05:51;6.28;;;1.67;;
55090;SDS011;40985;53.180;5.800;2023-02-28T06:08:16;5.15;;;1.83;;
55090;SDS011;40985;53.180;5.800;2023-02-28T06:10:43;4.80;;;2.22;;
55090;SDS011;40985;53.180;5.800;2023-02-28T06:13:10;4.55;;;1.90;;
55090;SDS011;40985;53.180;5.800;2023-02-28T06:15:36;3.35;;;1.67;;
55090;SDS011;40985;53.180;5.800;2023-02-28T06:18:02;4.90;;;2.40;;
55090;SDS011;40985;53.180;5.800;2023-02-28T06:20:29;7.35;;;4.57;;
55090;SDS011;40985;53.180;5.800;2023-02-28T06:22:56;7.88;;;4.20;;
55090;SDS011;40985;53.180;5.800;2023-02-28T06:25:23;5.00;;;4.20;;
55090;SDS011;40985;53.180;5.800;2023-02-28T06:27:50;6.38;;;4.00;;
55090;SDS011;40985;53.180;5.800;2023-02-28T06:30:16;4.18;;;3.78;;
55090;SDS011;40985;53.180;5.800;2023-02-28T06:32:42;3.75;;;3.30;;
55090;SDS011;40985;53.180;5.800;2023-02-28T06:35:08;4.82;;;3.75;;
55090;SDS011;40985;53.180;5.800;2023-02-28T06:37:34;4.55;;;3.70;;
55090;SDS011;40985;53.180;5.800;2023-02-28T06:39:59;3.72;;;3.42;;
55090;SDS011;40985;53.180;5.800;2023-02-28T06:42:25;3.75;;;3.20;;
55090;SDS011;40985;53.180;5.800;2023-02-28T06:44:57;3.75;;;2.80;;
55090;SDS011;40985;53.180;5.800;2023-02-28T06:47:22;3.92;;;3.63;;
55090;SDS011;40985;53.180;5.800;2023-02-28T06:49:49;3.90;;;3.50;;
55090;SDS011;40985;53.180;5.800;2023-02-28T06:52:15;4.50;;;3.95;;
55090;SDS011;40985;53.180;5.800;2023-02-28T06:54:41;5.00;;;4.60;;
55090;SDS011;40985;53.180;5.800;2023-02-28T06:57:07;4.90;;;4.50;;
55090;SDS011;40985;53.180;5.800;2023-02-28T06:59:33;5.35;;;4.43;;
55090;SDS011;40985;53.180;5.800;2023-02-28T07:02:00;6.22;;;5.25;;
55090;SDS011;40985;53.180;5.800;2023-02-28T07:04:27;6.18;;;5.57;;
55090;SDS011;40985;53.180;5.800;2023-02-28T07:06:54;7.63;;;5.80;;
55090;SDS011;40985;53.180;5.800;2023-02-28T07:09:21;7.05;;;6.35;;
55090;SDS011;40985;53.180;5.800;2023-02-28T07:11:47;7.65;;;6.50;;
55090;SDS011;40985;53.180;5.800;2023-02-28T07:14:13;7.20;;;6.40;;
55090;SDS011;40985;53.180;5.800;2023-02-28T07:16:39;9.10;;;8.20;;
55090;SDS011;40985;53.180;5.800;2023-02-28T07:19:05;10.13;;;8.32;;
55090;SDS011;40985;53.180;5.800;2023-02-28T07:21:30;13.38;;;9.73;;
55090;SDS011;40985;53.180;5.800;2023-02-28T07:23:56;11.88;;;8.73;;
55090;SDS011;40985;53.180;5.800;2023-02-28T07:26:22;10.27;;;9.05;;
55090;SDS011;40985;53.180;5.800;2023-02-28T07:28:48;11.45;;;8.90;;
55090;SDS011;40985;53.180;5.800;2023-02-28T07:31:14;11.50;;;8.77;;
55090;SDS011;40985;53.180;5.800;2023-02-28T07:33:42;11.15;;;8.57;;
55090;SDS011;40985;53.180;5.800;2023-02-28T07:36:10;12.00;;;9.75;;
55090;SDS011;40985;53.180;5.800;2023-02-28T07:38:42;12.68;;;9.73;;
55090;SDS011;40985;53.180;5.800;2023-02-28T07:41:09;12.82;;;10.13;;
55090;SDS011;40985;53.180;5.800;2023-02-28T07:43:35;15.48;;;9.55;;
55090;SDS011;40985;53.180;5.800;2023-02-28T07:46:05;11.45;;;10.32;;
55090;SDS011;40985;53.180;5.800;2023-02-28T07:48:33;12.32;;;10.77;;
55090;SDS011;40985;53.180;5.800;2023-02-28T07:51:00;15.23;;;11.05;;
55090;SDS011;40985;53.180;5.800;2023-02-28T07:53:26;13.32;;;10.15;;
55090;SDS011;40985;53.180;5.800;2023-02-28T07:55:56;13.15;;;11.20;;
55090;SDS011;40985;53.180;5.800;2023-02-28T07:58:23;14.45;;;11.57;;
55090;SDS011;40985;53.180;5.800;2023-02-28T08:00:50;14.90;;;11.30;;
55090;SDS011;40985;53.180;5.800;2023-02-28T08:03:17;16.80;;;12.43;;
55090;SDS011;40985;53.180;5.800;2023-02-28T08:05:43;13.35;;;11.95;;
55090;SDS011;40985;53.180;5.800;2023-02-28T08:08:09;15.55;;;12.15;;
55090;SDS011;40985;53.180;5.800;2023-02-28T08:10:35;16.75;;;12.43;;
55090;SDS011;40985;53.180;5.800;2023-02-28T08:13:01;17.40;;;13.18;;
55090;SDS011;40985;53.180;5.800;2023-02-28T08:15:26;15.60;;;12.32;;
55090;SDS011;40985;53.180;5.800;2023-02-28T08:17:52;17.60;;;13.73;;
55090;SDS011;40985;53.180;5.800;2023-02-28T08:20:18;17.05;;;13.63;;
55090;SDS011;40985;53.180;5.800;2023-02-28T08:22:44;17.15;;;13.30;;
55090;SDS011;40985;53.180;5.800;2023-02-28T08:25:09;16.80;;;13.70;;
55090;SDS011;40985;53.180;5.800;2023-02-28T08:27:36;18.30;;;13.20;;
55090;SDS011;40985;53.180;5.800;2023-02-28T08:30:02;16.73;;;13.32;;
55090;SDS011;40985;53.180;5.800;2023-02-28T08:32:28;21.73;;;14.75;;
55090;SDS011;40985;53.180;5.800;2023-02-28T08:34:54;19.90;;;14.95;;
55090;SDS011;40985;53.180;5.800;2023-02-28T08:37:19;18.90;;;13.85;;
55090;SDS011;40985;53.180;5.800;2023-02-28T08:39:45;17.50;;;13.80;;
55090;SDS011;40985;53.180;5.800;2023-02-28T08:42:11;22.92;;;14.45;;
55090;SDS011;40985;53.180;5.800;2023-02-28T08:44:36;15.30;;;12.63;;
55090;SDS011;40985;53.180;5.800;2023-02-28T08:47:02;16.02;;;12.82;;
55090;SDS011;40985;53.180;5.800;2023-02-28T08:49:28;15.18;;;12.82;;
55090;SDS011;40985;53.180;5.800;2023-02-28T08:51:54;19.65;;;13.38;;
55090;SDS011;40985;53.180;5.800;2023-02-28T08:54:22;16.67;;;12.38;;
55090;SDS011;40985;53.180;5.800;2023-02-28T08:56:48;14.45;;;12.15;;
55090;SDS011;40985;53.180;5.800;2023-02-28T08:59:13;15.15;;;12.32;;
55090;SDS011;40985;53.180;5.800;2023-02-28T09:01:39;15.13;;;11.65;;
55090;SDS011;40985;53.180;5.800;2023-02-28T09:04:06;15.05;;;11.32;;
55090;SDS011;40985;53.180;5.800;2023-02-28T09:06:33;13.57;;;11.75;;
55090;SDS011;40985;53.180;5.800;2023-02-28T09:08:59;11.82;;;10.25;;
55090;SDS011;40985;53.180;5.800;2023-02-28T09:11:26;11.88;;;10.68;;
55090;SDS011;40985;53.180;5.800;2023-02-28T09:13:53;12.48;;;10.88;;
55090;SDS011;40985;53.180;5.800;2023-02-28T09:16:20;13.93;;;11.23;;
55090;SDS011;40985;53.180;5.800;2023-02-28T09:18:47;14.15;;;10.80;;
55090;SDS011;40985;53.180;5.800;2023-02-28T09:21:14;14.60;;;12.35;;
55090;SDS011;40985;53.180;5.800;2023-02-28T09:23:41;15.57;;;11.98;;
55090;SDS011;40985;53.180;5.800;2023-02-28T09:26:12;13.88;;;11.65;;
55090;SDS011;40985;53.180;5.800;2023-02-28T09:28:42;15.55;;;12.25;;
55090;SDS011;40985;53.180;5.800;2023-02-28T09:31:15;14.95;;;12.30;;
55090;SDS011;40985;53.180;5.800;2023-02-28T09:33:45;12.23;;;10.93;;
55090;SDS011;40985;53.180;5.800;2023-02-28T09:36:12;13.90;;;12.35;;
55090;SDS011;40985;53.180;5.800;2023-02-28T09:38:37;14.45;;;11.38;;
55090;SDS011;40985;53.180;5.800;2023-02-28T09:41:13;13.27;;;11.88;;
55090;SDS011;40985;53.180;5.800;2023-02-28T09:43:45;15.50;;;12.35;;
55090;SDS011;40985;53.180;5.800;2023-02-28T09:46:29;14.80;;;12.38;;
55090;SDS011;40985;53.180;5.800;2023-02-28T09:49:28;13.30;;;11.85;;
55090;SDS011;40985;53.180;5.800;2023-02-28T09:51:59;14.18;;;11.85;;
55090;SDS011;40985;53.180;5.800;2023-02-28T09:54:30;13.02;;;11.38;;
55090;SDS011;40985;53.180;5.800;2023-02-28T10:05:41;11.60;;;10.40;;
55090;SDS011;40985;53.180;5.800;2023-02-28T10:08:15;11.15;;;9.98;;
55090;SDS011;40985;53.180;5.800;2023-02-28T10:10:56;11.37;;;9.27;;
55090;SDS011;40985;53.180;5.800;2023-02-28T10:13:45;10.98;;;9.82;;
55090;SDS011;40985;53.180;5.800;2023-02-28T10:16:28;10.02;;;9.02;;
55090;SDS011;40985;53.180;5.800;2023-02-28T10:19:12;10.30;;;8.57;;
55090;SDS011;40985;53.180;5.800;2023-02-28T10:21:45;8.93;;;7.65;;
55090;SDS011;40985;53.180;5.800;2023-02-28T10:24:20;8.93;;;8.02;;
55090;SDS011;40985;53.180;5.800;2023-02-28T10:27:13;8.90;;;7.75;;
55090;SDS011;40985;53.180;5.800;2023-02-28T10:29:44;9.75;;;8.05;;
55090;SDS011;40985;53.180;5.800;2023-02-28T10:32:16;10.02;;;7.40;;
55090;SDS011;40985;53.180;5.800;2023-02-28T10:34:43;8.32;;;6.57;;
55090;SDS011;40985;53.180;5.800;2023-02-28T10:37:12;8.32;;;6.35;;
55090;SDS011;40985;53.180;5.800;2023-02-28T10:42:22;7.18;;;6.43;;
55090;SDS011;40985;53.180;5.800;2023-02-28T10:47:34;6.95;;;4.63;;
55090;SDS011;40985;53.180;5.800;2023-02-28T10:52:52;6.05;;;4.25;;
55090;SDS011;40985;53.180;5.800;2023-02-28T10:57:46;3.90;;;3.33;;
55090;SDS011;40985;53.180;5.800;2023-02-28T11:00:14;4.47;;;2.95;;
55090;SDS011;40985;53.180;5.800;2023-02-28T11:02:40;4.85;;;2.83;;
55090;SDS011;40985;53.180;5.800;2023-02-28T11:05:23;8.70;;;3.55;;
55090;SDS011;40985;53.180;5.800;2023-02-28T11:07:55;5.60;;;3.10;;
55090;SDS011;40985;53.180;5.800;2023-02-28T11:10:25;3.17;;;2.88;;
55090;SDS011;40985;53.180;5.800;2023-02-28T11:12:55;5.32;;;2.80;;
55090;SDS011;40985;53.180;5.800;2023-02-28T11:15:23;4.03;;;2.70;;
55090;SDS011;40985;53.180;5.800;2023-02-28T11:17:53;4.28;;;2.35;;
55090;SDS011;40985;53.180;5.800;2023-02-28T11:20:23;2.92;;;1.88;;
55090;SDS011;40985;53.180;5.800;2023-02-28T11:22:51;5.60;;;2.55;;
55090;SDS011;40985;53.180;5.800;2023-02-28T11:27:59;5.53;;;2.58;;
55090;SDS011;40985;53.180;5.800;2023-02-28T11:35:49;2.45;;;2.17;;
55090;SDS011;40985;53.180;5.800;2023-02-28T11:38:16;1.70;;;1.48;;
55090;SDS011;40985;53.180;5.800;2023-02-28T11:48:47;2.75;;;0.82;;
55090;SDS011;40985;53.180;5.800;2023-02-28T11:56:50;3.33;;;1.40;;
55090;SDS011;40985;53.180;5.800;2023-02-28T12:10:24;2.45;;;1.23;;
55090;SDS011;40985;53.180;5.800;2023-02-28T12:26:45;1.58;;;0.95;;
55090;SDS011;40985;53.180;5.800;2023-02-28T12:29:19;2.42;;;1.30;;
55090;SDS011;40985;53.180;5.800;2023-02-28T12:32:11;2.38;;;0.95;;
55090;SDS011;40985;53.180;5.800;2023-02-28T12:34:49;2.20;;;1.02;;
55090;SDS011;40985;53.180;5.800;2023-02-28T12:37:22;1.73;;;0.95;;
55090;SDS011;40985;53.180;5.800;2023-02-28T12:39:55;2.65;;;1.00;;
55090;SDS011;40985;53.180;5.800;2023-02-28T12:42:39;1.58;;;0.70;;
55090;SDS011;40985;53.180;5.800;2023-02-28T12:45:12;3.00;;;0.82;;
55090;SDS011;40985;53.180;5.800;2023-02-28T12:47:45;1.80;;;0.70;;
55090;SDS011;40985;53.180;5.800;2023-02-28T12:50:15;3.58;;;1.02;;
55090;SDS011;40985;53.180;5.800;2023-02-28T12:58:39;1.52;;;1.02;;
55090;SDS011;40985;53.180;5.800;2023-02-28T13:09:54;3.90;;;1.27;;
55090;SDS011;40985;53.180;5.800;2023-02-28T13:12:22;2.00;;;1.08;;
55090;SDS011;40985;53.180;5.800;2023-02-28T13:14:49;2.05;;;0.75;;
55090;SDS011;40985;53.180;5.800;2023-02-28T13:17:19;1.45;;;1.10;;
55090;SDS011;40985;53.180;5.800;2023-02-28T13:24:51;2.40;;;1.00;;
55090;SDS011;40985;53.180;5.800;2023-02-28T13:38:46;2.83;;;1.40;;
55090;SDS011;40985;53.180;5.800;2023-02-28T13:57:31;1.83;;;1.38;;
55090;SDS011;40985;53.180;5.800;2023-02-28T14:05:20;2.65;;;1.40;;
55090;SDS011;40985;53.180;5.800;2023-02-28T14:07:52;3.78;;;2.17;;
55090;SDS011;40985;53.180;5.800;2023-02-28T14:10:30;2.72;;;1.55;;
55090;SDS011;40985;53.180;5.800;2023-02-28T14:13:00;2.58;;;1.30;;
55090;SDS011;40985;53.180;5.800;2023-02-28T14:15:39;1.77;;;1.52;;
55090;SDS011;40985;53.180;5.800;2023-02-28T14:18:10;1.88;;;1.25;;
55090;SDS011;40985;53.180;5.800;2023-02-28T14:20:48;2.60;;;1.50;;
55090;SDS011;40985;53.180;5.800;2023-02-28T14:23:40;2.63;;;1.67;;
55090;SDS011;40985;53.180;5.800;2023-02-28T14:26:13;3.13;;;1.30;;
55090;SDS011;40985;53.180;5.800;2023-02-28T14:31:29;1.50;;;1.20;;
55090;SDS011;40985;53.180;5.800;2023-02-28T14:34:12;3.50;;;1.77;;
55090;SDS011;40985;53.180;5.800;2023-02-28T14:37:01;1.75;;;1.48;;
55090;SDS011;40985;53.180;5.800;2023-02-28T14:39:28;1.83;;;1.35;;
55090;SDS011;40985;53.180;5.800;2023-02-28T14:41:57;3.00;;;1.70;;
55090;SDS011;40985;53.180;5.800;2023-02-28T14:44:29;3.90;;;1.30;;
55090;SDS011;40985;53.180;5.800;2023-02-28T14:46:57;2.67;;;1.70;;
55090;SDS011;40985;53.180;5.800;2023-02-28T14:49:34;2.33;;;1.65;;
55090;SDS011;40985;53.180;5.800;2023-02-28T14:52:05;2.60;;;1.90;;
55090;SDS011;40985;53.180;5.800;2023-02-28T14:54:52;1.92;;;1.75;;
55090;SDS011;40985;53.180;5.800;2023-02-28T14:57:40;2.75;;;1.73;;
55090;SDS011;40985;53.180;5.800;2023-02-28T15:02:35;4.95;;;2.42;;
55090;SDS011;40985;53.180;5.800;2023-02-28T15:07:43;4.93;;;1.73;;
55090;SDS011;40985;53.180;5.800;2023-02-28T15:12:56;2.17;;;1.70;;
55090;SDS011;40985;53.180;5.800;2023-02-28T15:16:06;2.45;;;1.58;;
55090;SDS011;40985;53.180;5.800;2023-02-28T15:21:15;3.08;;;1.90;;
55090;SDS011;40985;53.180;5.800;2023-02-28T15:23:58;2.65;;;1.60;;
55090;SDS011;40985;53.180;5.800;2023-02-28T15:26:26;1.90;;;1.67;;
55090;SDS011;40985;53.180;5.800;2023-02-28T15:29:06;3.22;;;1.88;;
55090;SDS011;40985;53.180;5.800;2023-02-28T15:31:41;1.95;;;1.67;;
55090;SDS011;40985;53.180;5.800;2023-02-28T15:34:16;2.92;;;1.48;;
55090;SDS011;40985;53.180;5.800;2023-02-28T15:36:45;3.20;;;2.03;;
55090;SDS011;40985;53.180;5.800;2023-02-28T15:39:27;2.28;;;2.08;;
55090;SDS011;40985;53.180;5.800;2023-02-28T15:42:09;2.50;;;1.55;;
55090;SDS011;40985;53.180;5.800;2023-02-28T15:44:44;2.22;;;2.00;;
55090;SDS011;40985;53.180;5.800;2023-02-28T15:47:16;2.40;;;1.52;;
55090;SDS011;40985;53.180;5.800;2023-02-28T15:49:55;4.55;;;2.17;;
55090;SDS011;40985;53.180;5.800;2023-02-28T15:52:34;3.38;;;2.60;;
55090;SDS011;40985;53.180;5.800;2023-02-28T15:57:44;4.25;;;2.13;;
55090;SDS011;40985;53.180;5.800;2023-02-28T16:00:14;2.85;;;2.03;;
55090;SDS011;40985;53.180;5.800;2023-02-28T16:02:41;3.13;;;2.35;;
55090;SDS011;40985;53.180;5.800;2023-02-28T16:07:34;5.07;;;2.63;;
55090;SDS011;40985;53.180;5.800;2023-02-28T16:10:01;5.00;;;3.05;;
55090;SDS011;40985;53.180;5.800;2023-02-28T16:12:28;7.05;;;3.17;;
55090;SDS011;40985;53.180;5.800;2023-02-28T16:14:57;4.70;;;3.00;;
55090;SDS011;40985;53.180;5.800;2023-02-28T16:17:27;3.58;;;3.28;;
55090;SDS011;40985;53.180;5.800;2023-02-28T16:20:00;6.20;;;3.67;;
55090;SDS011;40985;53.180;5.800;2023-02-28T16:22:30;5.07;;;4.10;;
55090;SDS011;40985;53.180;5.800;2023-02-28T16:24:56;8.02;;;4.18;;
55090;SDS011;40985;53.180;5.800;2023-02-28T16:27:26;4.85;;;4.22;;
55090;SDS011;40985;53.180;5.800;2023-02-28T16:29:56;5.13;;;4.63;;
55090;SDS011;40985;53.180;5.800;2023-02-28T16:32:22;5.05;;;4.45;;
55090;SDS011;40985;53.180;5.800;2023-02-28T16:34:47;6.75;;;5.10;;
55090;SDS011;40985;53.180;5.800;2023-02-28T16:37:15;5.30;;;4.43;;
55090;SDS011;40985;53.180;5.800;2023-02-28T16:39:42;6.47;;;5.13;;
55090;SDS011;40985;53.180;5.800;2023-02-28T16:42:10;6.38;;;4.45;;
55090;SDS011;40985;53.180;5.800;2023-02-28T16:44:47;7.15;;;5.10;;
55090;SDS011;40985;53.180;5.800;2023-02-28T16:47:13;5.60;;;4.45;;
55090;SDS011;40985;53.180;5.800;2023-02-28T16:49:40;6.07;;;5.28;;
55090;SDS011;40985;53.180;5.800;2023-02-28T16:52:07;6.00;;;5.40;;
55090;SDS011;40985;53.180;5.800;2023-02-28T16:54:34;6.00;;;4.93;;
55090;SDS011;40985;53.180;5.800;2023-02-28T16:56:59;6.65;;;4.78;;
55090;SDS011;40985;53.180;5.800;2023-02-28T16:59:25;6.25;;;4.95;;
55090;SDS011;40985;53.180;5.800;2023-02-28T17:01:52;7.28;;;5.25;;
55090;SDS011;40985;53.180;5.800;2023-02-28T17:04:19;5.57;;;4.47;;
55090;SDS011;40985;53.180;5.800;2023-02-28T17:06:44;8.77;;;5.35;;
55090;SDS011;40985;53.180;5.800;2023-02-28T17:09:15;8.05;;;5.43;;
55090;SDS011;40985;53.180;5.800;2023-02-28T17:11:43;5.97;;;5.03;;
55090;SDS011;40985;53.180;5.800;2023-02-28T17:14:09;6.18;;;5.50;;
55090;SDS011;40985;53.180;5.800;2023-02-28T17:16:35;6.95;;;5.53;;
55090;SDS011;40985;53.180;5.800;2023-02-28T17:19:05;8.57;;;6.28;;
55090;SDS011;40985;53.180;5.800;2023-02-28T17:21:36;9.15;;;6.72;;
55090;SDS011;40985;53.180;5.800;2023-02-28T17:24:02;8.52;;;6.63;;
55090;SDS011;40985;53.180;5.800;2023-02-28T17:26:28;8.65;;;6.43;;
55090;SDS011;40985;53.180;5.800;2023-02-28T17:28:57;6.97;;;5.93;;
55090;SDS011;40985;53.180;5.800;2023-02-28T17:31:24;11.43;;;7.82;;
55090;SDS011;40985;53.180;5.800;2023-02-28T17:33:50;9.68;;;7.53;;
55090;SDS011;40985;53.180;5.800;2023-02-28T17:36:24;11.18;;;7.65;;
55090;SDS011;40985;53.180;5.800;2023-02-28T17:38:51;8.43;;;7.03;;
55090;SDS011;40985;53.180;5.800;2023-02-28T17:41:19;7.38;;;6.30;;
55090;SDS011;40985;53.180;5.800;2023-02-28T17:43:45;8.93;;;6.95;;
55090;SDS011;40985;53.180;5.800;2023-02-28T17:46:15;9.10;;;6.68;;
55090;SDS011;40985;53.180;5.800;2023-02-28T17:48:45;9.10;;;6.75;;
55090;SDS011;40985;53.180;5.800;2023-02-28T17:51:14;8.23;;;7.25;;
55090;SDS011;40985;53.180;5.800;2023-02-28T17:53:41;9.07;;;7.60;;
55090;SDS011;40985;53.180;5.800;2023-02-28T17:56:21;9.32;;;6.82;;
55090;SDS011;40985;53.180;5.800;2023-02-28T17:58:48;9.50;;;7.78;;
55090;SDS011;40985;53.180;5.800;2023-02-28T18:01:15;9.43;;;7.28;;